Time;durP1;ratioP1;P1;durP2;ratioP2;P2;SDS_P1;SDS_P2;PMS_P1;PMS_P2;Temp;Humidity;BMP_temperature;BMP_pressure;BME280_temperature;BME280_humidity;BME280_pressure;Samples;Min_cycle;Max_cycle;Signal;HPM_P1;HPM_P2
2021/07/01 00:01:45;;;;;;;15.50;11.20;;;23.80;71.30;;;;;;5055620;28;20024;-83
2021/07/01 00:04:12;;;;;;;12.13;10.77;;;23.80;71.40;;;;;;5073841;28;20020;-85
2021/07/01 00:06:38;;;;;;;21.33;11.73;;;23.70;71.40;;;;;;5073673;28;20750;-84
2021/07/01 00:09:04;;;;;;;14.80;11.48;;;23.70;71.60;;;;;;5073365;28;20020;-84
2021/07/01 00:11:31;;;;;;;15.85;12.77;;;23.70;71.80;;;;;;5073178;28;20482;-85
2021/07/01 00:13:56;;;;;;;13.57;12.02;;;23.70;71.90;;;;;;5054826;28;20460;-84
2021/07/01 00:16:23;;;;;;;16.33;11.65;;;23.60;71.90;;;;;;5072099;28;20046;-84
2021/07/01 00:18:49;;;;;;;17.70;12.35;;;23.60;72.00;;;;;;5073376;28;20027;-84
2021/07/01 00:21:17;;;;;;;15.25;13.10;;;23.50;72.10;;;;;;5055511;28;20397;-85
2021/07/01 00:23:43;;;;;;;15.30;11.68;;;23.40;72.30;;;;;;5055454;28;20372;-85
2021/07/01 00:26:10;;;;;;;21.35;11.70;;;23.40;72.50;;;;;;5054251;28;20028;-84
2021/07/01 00:28:36;;;;;;;16.08;11.48;;;23.40;73.00;;;;;;5054701;28;20123;-82
2021/07/01 00:31:01;;;;;;;19.80;11.77;;;23.40;73.40;;;;;;5054698;28;20107;-82
2021/07/01 00:33:27;;;;;;;14.70;11.18;;;23.40;73.60;;;;;;5073444;28;20471;-82
2021/07/01 00:35:53;;;;;;;17.63;12.18;;;23.50;74.00;;;;;;5055716;28;20031;-82
2021/07/01 00:38:18;;;;;;;16.75;12.13;;;23.50;74.20;;;;;;5073061;28;20531;-82
2021/07/01 00:40:44;;;;;;;14.93;11.70;;;23.50;74.40;;;;;;5055114;28;20108;-82
2021/07/01 00:43:10;;;;;;;20.63;12.00;;;23.50;74.60;;;;;;5055217;28;20067;-82
2021/07/01 00:45:35;;;;;;;17.00;12.07;;;23.50;75.00;;;;;;5055375;28;20077;-83
2021/07/01 00:48:01;;;;;;;17.52;11.80;;;23.50;75.00;;;;;;5054942;28;20031;-82
2021/07/01 00:50:28;;;;;;;23.80;11.27;;;23.50;75.30;;;;;;5072963;28;20021;-82
2021/07/01 00:52:54;;;;;;;13.50;12.05;;;23.50;75.60;;;;;;5072716;28;20053;-83
2021/07/01 00:55:20;;;;;;;15.90;11.25;;;23.60;75.60;;;;;;5072430;28;20460;-82
2021/07/01 00:57:46;;;;;;;16.02;11.90;;;23.60;75.20;;;;;;5054821;28;20462;-83
2021/07/01 01:00:45;;;;;;;22.63;12.25;;;23.60;74.80;;;;;;5054822;28;20088;-83
2021/07/01 01:02:59;;;;;;;15.98;12.55;;;23.60;74.80;;;;;;5072330;28;20032;-83
2021/07/01 01:05:24;;;;;;;15.57;12.07;;;23.60;74.60;;;;;;5054678;28;20854;-83
2021/07/01 01:07:51;;;;;;;16.42;12.60;;;23.60;74.70;;;;;;5072074;28;20021;-83
2021/07/01 01:10:17;;;;;;;14.23;12.23;;;23.50;74.80;;;;;;5072671;28;20020;-82
2021/07/01 01:12:43;;;;;;;21.48;12.50;;;23.50;75.20;;;;;;5054840;28;20098;-83
2021/07/01 01:15:09;;;;;;;20.70;12.68;;;23.50;75.60;;;;;;5072723;28;20071;-83
2021/07/01 01:17:36;;;;;;;20.98;12.68;;;23.40;76.00;;;;;;5072493;28;20108;-83
2021/07/01 01:20:04;;;;;;;20.20;12.60;;;23.40;76.50;;;;;;5054954;28;20081;-83
2021/07/01 01:22:30;;;;;;;17.70;12.85;;;23.40;76.90;;;;;;5073024;28;20050;-84
2021/07/01 01:24:55;;;;;;;15.85;12.82;;;23.30;77.20;;;;;;5055191;28;20494;-84
2021/07/01 01:27:22;;;;;;;19.42;12.60;;;23.30;77.60;;;;;;5073210;28;20486;-83
2021/07/01 01:29:48;;;;;;;21.05;13.45;;;23.30;78.00;;;;;;5072866;28;20021;-83
2021/07/01 01:32:14;;;;;;;17.48;14.15;;;23.30;78.70;;;;;;5073416;28;20013;-83
2021/07/01 01:34:40;;;;;;;20.35;14.73;;;23.30;79.50;;;;;;5056475;28;20064;-82
2021/07/01 01:37:09;;;;;;;18.80;13.75;;;23.30;80.10;;;;;;5089675;28;20025;-84
2021/07/01 01:39:35;;;;;;;17.30;14.13;;;23.30;80.90;;;;;;5090887;28;20031;-85
2021/07/01 01:42:01;;;;;;;17.45;13.20;;;23.30;81.30;;;;;;5076890;28;20386;-84
2021/07/01 01:44:27;;;;;;;16.30;12.63;;;23.30;81.50;;;;;;5076952;28;20025;-84
2021/07/01 01:46:52;;;;;;;19.15;13.52;;;23.30;81.60;;;;;;5058730;28;20112;-84
2021/07/01 01:49:20;;;;;;;15.10;13.18;;;23.40;81.90;;;;;;5058271;28;20079;-84
2021/07/01 01:51:47;;;;;;;15.07;13.23;;;23.40;82.00;;;;;;5076217;28;20020;-84
2021/07/01 01:54:13;;;;;;;17.45;13.52;;;23.40;82.00;;;;;;5058235;28;20108;-83
2021/07/01 01:56:48;;;;;;;16.30;14.05;;;23.40;82.10;;;;;;5076320;28;20100;-84
2021/07/01 01:59:13;;;;;;;16.73;13.80;;;23.40;82.30;;;;;;5058343;28;20055;-84
2021/07/01 02:01:40;;;;;;;16.10;13.45;;;23.40;82.50;;;;;;5058052;28;20033;-84
2021/07/01 02:04:06;;;;;;;15.25;12.82;;;23.40;82.80;;;;;;5076112;28;20028;-84
2021/07/01 02:06:34;;;;;;;17.95;12.65;;;23.30;83.10;;;;;;5058120;28;20032;-85
2021/07/01 02:09:01;;;;;;;14.05;12.55;;;23.30;83.70;;;;;;5057677;28;20027;-82
2021/07/01 02:11:27;;;;;;;13.45;11.50;;;23.20;84.00;;;;;;5076005;28;20020;-82
2021/07/01 02:13:52;;;;;;;14.57;10.68;;;23.20;84.20;;;;;;5076071;28;20021;-82
2021/07/01 02:16:18;;;;;;;13.23;9.95;;;23.20;84.40;;;;;;5057440;28;20031;-83
2021/07/01 02:18:47;;;;;;;16.27;9.82;;;23.10;84.50;;;;;;5075800;28;20093;-82
2021/07/01 02:21:12;;;;;;;11.88;10.23;;;23.10;84.70;;;;;;5075667;28;20416;-82
2021/07/01 02:23:38;;;;;;;12.82;10.07;;;23.10;84.90;;;;;;5075709;28;20062;-82
2021/07/01 02:26:04;;;;;;;14.07;9.82;;;23.00;85.10;;;;;;5076048;28;20056;-82
2021/07/01 02:28:29;;;;;;;13.60;9.68;;;23.00;85.40;;;;;;5057365;28;20399;-83
2021/07/01 02:30:55;;;;;;;12.85;10.80;;;23.00;85.80;;;;;;5075390;28;20024;-84
2021/07/01 02:33:21;;;;;;;19.98;11.57;;;23.00;86.30;;;;;;5075338;28;20028;-84
2021/07/01 02:35:46;;;;;;;19.48;11.23;;;23.00;87.00;;;;;;5075498;28;20100;-83
2021/07/01 02:38:12;;;;;;;17.38;11.13;;;22.90;87.50;;;;;;5075573;28;20052;-83
2021/07/01 02:40:38;;;;;;;17.45;11.02;;;22.90;88.20;;;;;;5075057;28;20025;-83
2021/07/01 02:43:04;;;;;;;16.23;11.93;;;22.90;88.70;;;;;;5075159;28;20459;-83
2021/07/01 02:45:30;;;;;;;13.35;11.40;;;22.90;89.20;;;;;;5074935;28;20033;-83
2021/07/01 02:47:55;;;;;;;15.02;9.90;;;22.90;89.40;;;;;;5056791;28;20028;-84
2021/07/01 02:50:21;;;;;;;15.45;10.10;;;22.80;88.80;;;;;;5056495;28;20378;-86
2021/07/01 02:52:47;;;;;;;17.75;11.32;;;22.80;88.80;;;;;;5056934;28;20021;-88
2021/07/01 02:55:13;;;;;;;16.25;10.68;;;22.70;89.10;;;;;;5075220;28;20017;-88
2021/07/01 02:57:39;;;;;;;17.90;10.77;;;22.60;89.60;;;;;;5057146;28;20028;-87
2021/07/01 03:00:09;;;;;;;22.63;11.65;;;22.40;90.40;;;;;;5074815;28;20052;-86
2021/07/01 03:02:34;;;;;;;13.32;11.23;;;22.30;91.60;;;;;;5074634;28;20592;-87
2021/07/01 03:05:01;;;;;;;21.92;12.07;;;22.10;92.90;;;;;;5056703;28;20033;-87
2021/07/01 03:07:27;;;;;;;13.88;11.35;;;21.80;93.80;;;;;;5074625;28;20360;-86
2021/07/01 03:09:52;;;;;;;17.98;14.20;;;21.70;94.90;;;;;;5074874;28;20050;-86
2021/07/01 03:12:18;;;;;;;17.75;12.60;;;21.50;96.50;;;;;;5056347;28;20024;-86
2021/07/01 03:14:44;;;;;;;16.50;13.82;;;21.40;97.60;;;;;;5056286;28;20031;-86
2021/07/01 03:17:10;;;;;;;19.50;13.00;;;21.40;98.40;;;;;;5074651;28;20020;-86
2021/07/01 03:19:35;;;;;;;17.27;13.73;;;21.40;99.10;;;;;;5056009;28;20033;-86
2021/07/01 03:22:01;;;;;;;15.70;12.68;;;21.40;99.60;;;;;;5074648;28;20121;-86
2021/07/01 03:24:27;;;;;;;17.75;13.30;;;21.30;99.90;;;;;;5056098;28;20025;-86
2021/07/01 03:26:53;;;;;;;16.25;11.90;;;21.30;99.90;;;;;;5056175;28;20356;-86
2021/07/01 03:29:19;;;;;;;16.48;14.30;;;21.20;99.90;;;;;;5056066;28;20062;-85
2021/07/01 03:31:45;;;;;;;15.95;10.90;;;21.30;99.90;;;;;;5074002;28;20033;-84
2021/07/01 03:34:10;;;;;;;15.18;12.90;;;21.30;99.90;;;;;;5074263;28;20032;-85
2021/07/01 03:36:36;;;;;;;15.98;11.38;;;21.30;99.90;;;;;;5073929;28;20051;-84
2021/07/01 03:39:03;;;;;;;13.85;11.55;;;21.40;99.90;;;;;;5055996;28;20025;-86
2021/07/01 03:41:30;;;;;;;13.15;11.75;;;21.40;99.90;;;;;;5056305;28;20101;-87
2021/07/01 03:43:55;;;;;;;12.70;11.18;;;21.40;99.90;;;;;;5074265;28;20104;-87
2021/07/01 03:46:21;;;;;;;12.63;10.75;;;21.50;99.90;;;;;;5075407;28;20059;-87
2021/07/01 03:48:47;;;;;;;13.15;11.75;;;21.60;99.90;;;;;;5057097;28;20028;-89
2021/07/01 03:51:12;;;;;;;17.42;11.88;;;21.60;99.90;;;;;;5056367;28;20020;-87
2021/07/01 03:53:39;;;;;;;14.32;11.60;;;21.70;99.90;;;;;;5073965;28;20044;-88
2021/07/01 03:56:05;;;;;;;12.82;10.35;;;21.70;99.90;;;;;;5074434;28;20374;-88
2021/07/01 03:58:30;;;;;;;14.05;10.95;;;21.80;99.90;;;;;;5056412;28;20166;-87
2021/07/01 04:00:56;;;;;;;14.95;12.90;;;21.90;99.90;;;;;;5074878;28;20039;-89
2021/07/01 04:03:22;;;;;;;14.32;12.73;;;22.00;99.90;;;;;;5055938;28;20020;-88
2021/07/01 04:05:48;;;;;;;20.63;13.52;;;22.00;99.90;;;;;;5074045;28;20029;-88
2021/07/01 04:08:13;;;;;;;25.17;15.38;;;22.10;99.90;;;;;;5073839;28;20477;-86
2021/07/01 04:10:39;;;;;;;21.42;15.48;;;22.20;99.90;;;;;;5055795;28;20115;-85
2021/07/01 04:13:05;;;;;;;25.65;16.98;;;22.30;99.90;;;;;;5073698;28;20032;-84
2021/07/01 04:15:31;;;;;;;25.88;17.88;;;22.40;99.90;;;;;;5073656;28;20021;-88
2021/07/01 04:17:56;;;;;;;25.77;16.88;;;22.40;99.90;;;;;;5056518;28;20039;-89
2021/07/01 04:20:22;;;;;;;23.45;18.48;;;22.50;99.90;;;;;;5073529;28;20082;-87
2021/07/01 04:22:48;;;;;;;21.27;16.95;;;22.50;99.90;;;;;;5074096;28;20107;-88
2021/07/01 04:25:14;;;;;;;25.30;16.95;;;22.50;99.90;;;;;;5074105;28;20469;-87
2021/07/01 04:27:39;;;;;;;24.45;17.40;;;22.60;99.90;;;;;;5054898;28;20029;-87
2021/07/01 04:30:06;;;;;;;21.95;17.17;;;22.60;99.90;;;;;;5073083;28;20443;-87
2021/07/01 04:32:32;;;;;;;29.27;17.92;;;22.70;99.90;;;;;;5073691;28;20151;-87
2021/07/01 04:34:57;;;;;;;26.02;17.02;;;22.80;99.90;;;;;;5073670;28;20473;-84
2021/07/01 04:37:23;;;;;;;26.33;18.73;;;22.90;99.90;;;;;;5055476;28;20099;-85
2021/07/01 04:39:49;;;;;;;24.42;18.33;;;23.10;99.90;;;;;;5073839;28;20032;-84
2021/07/01 04:42:15;;;;;;;28.08;18.75;;;23.20;99.90;;;;;;5040272;28;20131;-84
2021/07/01 04:44:41;;;;;;;24.75;17.27;;;23.30;99.90;;;;;;5055218;28;20060;-84
2021/07/01 04:47:06;;;;;;;26.40;17.65;;;23.50;99.90;;;;;;5073357;28;20038;-85
2021/07/01 04:49:32;;;;;;;29.67;18.30;;;23.70;99.90;;;;;;5073440;28;20031;-85
2021/07/01 04:51:58;;;;;;;23.15;16.83;;;23.80;99.90;;;;;;5055071;28;20116;-84
2021/07/01 04:54:24;;;;;;;20.13;15.18;;;24.00;99.90;;;;;;5073386;28;20101;-85
2021/07/01 04:56:49;;;;;;;19.45;14.73;;;24.20;99.90;;;;;;5055064;28;20112;-84
2021/07/01 04:59:18;;;;;;;18.98;13.88;;;24.40;99.90;;;;;;5073585;28;20116;-85
2021/07/01 05:01:44;;;;;;;14.98;13.38;;;24.80;99.90;;;;;;5073270;28;20021;-86
2021/07/01 05:04:12;;;;;;;15.25;13.70;;;25.10;99.90;;;;;;5074384;28;20036;-84
2021/07/01 05:06:39;;;;;;;17.50;12.73;;;25.30;99.90;;;;;;5073889;28;20032;-86
2021/07/01 05:09:07;;;;;;;18.45;13.25;;;25.50;99.90;;;;;;5055876;28;20378;-84
2021/07/01 05:11:33;;;;;;;14.10;12.68;;;25.60;99.60;;;;;;5055989;28;20044;-84
2021/07/01 05:13:59;;;;;;;14.60;13.10;;;25.60;98.60;;;;;;5076908;28;20024;-86
2021/07/01 05:16:29;;;;;;;18.70;12.52;;;25.60;97.50;;;;;;5076657;28;20025;-83
2021/07/01 05:18:58;;;;;;;15.15;12.80;;;25.60;96.70;;;;;;5076606;28;20035;-84
2021/07/01 05:21:24;;;;;;;20.95;13.60;;;25.50;96.30;;;;;;5076178;28;20446;-84
2021/07/01 05:23:50;;;;;;;14.73;12.27;;;25.40;95.60;;;;;;5076268;28;20028;-84
2021/07/01 05:26:17;;;;;;;15.57;12.15;;;25.40;95.50;;;;;;5060905;28;20081;-85
2021/07/01 05:28:44;;;;;;;14.85;12.55;;;25.30;95.10;;;;;;5063741;28;20115;-85
2021/07/01 05:31:10;;;;;;;14.45;12.10;;;25.30;95.20;;;;;;5077239;28;20021;-85
2021/07/01 05:33:36;;;;;;;15.75;13.48;;;25.30;95.30;;;;;;5077612;28;20032;-85
2021/07/01 05:36:03;;;;;;;16.80;15.00;;;25.30;95.60;;;;;;5059336;28;20024;-87
2021/07/01 05:38:29;;;;;;;19.30;15.43;;;25.30;95.60;;;;;;5077185;28;20146;-86
2021/07/01 05:40:54;;;;;;;19.90;16.38;;;25.30;95.70;;;;;;5082128;28;20092;-87
2021/07/01 05:43:20;;;;;;;25.67;20.13;;;25.30;95.40;;;;;;5082151;28;20029;-86
2021/07/01 05:45:46;;;;;;;20.42;18.13;;;25.30;95.50;;;;;;5058051;28;20029;-86
2021/07/01 05:48:12;;;;;;;22.60;17.30;;;25.40;95.40;;;;;;5057301;28;20411;-86
2021/07/01 05:51:20;;;;;;;21.02;17.73;;;25.40;95.50;;;;;;5076167;28;20023;-86
2021/07/01 05:54:00;;;;;;;20.90;16.65;;;25.50;95.30;;;;;;5067861;28;20055;-86
2021/07/01 05:56:16;;;;;;;21.27;18.27;;;25.60;94.90;;;;;;5076436;28;20028;-86
2021/07/01 05:58:42;;;;;;;25.30;18.33;;;25.70;95.10;;;;;;5056754;28;20101;-81
2021/07/01 06:01:08;;;;;;;27.20;18.45;;;25.80;94.90;;;;;;5074895;28;20482;-80
2021/07/01 06:03:35;;;;;;;33.53;18.20;;;26.00;94.90;;;;;;5075034;28;20036;-82
2021/07/01 06:06:09;;;;;;;23.38;17.23;;;26.10;94.30;;;;;;5057001;28;20492;-82
2021/07/01 06:08:36;;;;;;;23.42;17.95;;;26.20;93.70;;;;;;5074396;28;20390;-83
2021/07/01 06:11:06;;;;;;;23.35;17.50;;;26.40;93.50;;;;;;5074620;28;20104;-82
2021/07/01 06:13:36;;;;;;;28.52;16.65;;;26.40;93.00;;;;;;5074392;28;20020;-82
2021/07/01 06:16:03;;;;;;;24.92;17.67;;;26.50;92.50;;;;;;5073890;28;20035;-82
2021/07/01 06:18:30;;;;;;;31.92;18.13;;;26.50;92.30;;;;;;5056176;28;20059;-82
2021/07/01 06:20:56;;;;;;;26.45;20.70;;;26.60;92.20;;;;;;5056331;28;20075;-81
2021/07/01 06:23:22;;;;;;;22.55;17.23;;;26.60;92.10;;;;;;5072407;28;20503;-81
2021/07/01 06:25:49;;;;;;;21.95;16.75;;;26.70;92.00;;;;;;5073763;28;20154;-81
2021/07/01 06:28:15;;;;;;;22.85;17.42;;;26.70;91.90;;;;;;5073897;28;20028;-81
2021/07/01 06:30:42;;;;;;;22.20;17.80;;;26.80;91.80;;;;;;5074516;28;20021;-83
2021/07/01 06:33:10;;;;;;;22.85;17.23;;;26.80;91.40;;;;;;5056122;28;20188;-83
2021/07/01 06:35:37;;;;;;;24.10;16.90;;;26.90;91.10;;;;;;5074384;28;20383;-84
2021/07/01 06:38:09;;;;;;;26.00;17.27;;;27.10;90.80;;;;;;5075403;28;20023;-89
2021/07/01 06:40:35;;;;;;;33.25;20.23;;;27.20;90.60;;;;;;5057282;28;20067;-84
2021/07/01 06:43:02;;;;;;;23.67;18.38;;;27.30;90.30;;;;;;5074135;28;20033;-91
2021/07/01 06:45:28;;;;;;;22.83;17.60;;;27.40;89.90;;;;;;5057961;28;20024;-90
2021/07/01 06:47:56;;;;;;;19.85;16.58;;;27.60;89.30;;;;;;5076143;28;20329;-91
2021/07/01 06:50:24;;;;;;;19.83;16.10;;;27.80;88.30;;;;;;5057074;28;20424;-80
2021/07/01 06:52:56;;;;;;;27.40;17.17;;;27.90;86.50;;;;;;5074039;28;20096;-82
2021/07/01 06:55:22;;;;;;;;;;;28.00;85.60;;;;;;5074061;28;20017;-80
2021/07/01 06:57:49;;;;;;;26.75;18.55;;;28.00;89.30;;;;;;5073963;28;20366;-81
2021/07/01 07:00:17;;;;;;;21.58;17.05;;;28.00;87.20;;;;;;5056071;28;20028;-83
2021/07/01 07:02:43;;;;;;;21.77;17.00;;;28.10;86.10;;;;;;5073495;28;20116;-83
2021/07/01 07:05:17;;;;;;;28.88;18.80;;;28.10;84.90;;;;;;5073451;28;20422;-81
2021/07/01 07:07:45;;;;;;;21.20;16.63;;;28.20;84.00;;;;;;5073485;28;20050;-82
2021/07/01 07:10:13;;;;;;;17.55;15.65;;;28.20;83.60;;;;;;5073313;28;20402;-88
2021/07/01 07:12:41;;;;;;;29.65;18.63;;;28.20;83.10;;;;;;5073330;28;20027;-81
2021/07/01 07:15:09;;;;;;;30.33;21.30;;;28.30;83.00;;;;;;5073641;28;20020;-82
2021/07/01 07:17:37;;;;;;;35.08;19.30;;;28.30;82.70;;;;;;5073152;28;20028;-82
2021/07/01 07:20:05;;;;;;;26.58;19.08;;;28.40;82.50;;;;;;5072462;28;20021;-82
2021/07/01 07:22:34;;;;;;;27.23;19.88;;;28.50;82.00;;;;;;5072523;28;20028;-81
2021/07/01 07:25:02;;;;;;;24.33;16.52;;;28.60;82.10;;;;;;5072287;28;20481;-83
2021/07/01 07:27:30;;;;;;;22.88;15.43;;;28.70;81.50;;;;;;5072552;28;20121;-82
2021/07/01 07:29:56;;;;;;;20.92;14.65;;;28.90;80.70;;;;;;5072511;28;20039;-81
2021/07/01 07:32:23;;;;;;;19.75;13.50;;;29.10;79.80;;;;;;5072712;28;20491;-81
2021/07/01 07:34:50;;;;;;;21.35;12.43;;;29.40;78.80;;;;;;5072653;28;20025;-82
2021/07/01 07:37:16;;;;;;;14.93;11.70;;;30.20;78.30;;;;;;5054141;28;20024;-82
2021/07/01 07:39:44;;;;;;;20.80;12.65;;;31.00;76.30;;;;;;5054476;28;20036;-80
2021/07/01 07:42:11;;;;;;;14.85;11.63;;;31.90;74.80;;;;;;5073163;28;20490;-82
2021/07/01 07:44:39;;;;;;;15.57;10.13;;;33.10;72.70;;;;;;5073019;28;20036;-84
2021/07/01 07:47:14;;;;;;;16.92;9.85;;;34.10;69.50;;;;;;5072938;28;20032;-82
2021/07/01 07:49:42;;;;;;;15.45;10.50;;;35.10;67.20;;;;;;5072633;28;20025;-81
2021/07/01 07:52:11;;;;;;;14.07;11.02;;;35.80;64.50;;;;;;5072688;28;20024;-82
2021/07/01 07:54:48;;;;;;;12.98;11.23;;;35.90;62.40;;;;;;5072456;28;20455;-82
2021/07/01 07:57:17;;;;;;;14.63;10.52;;;35.70;62.00;;;;;;5072896;28;20028;-82
2021/07/01 07:59:46;;;;;;;20.67;11.05;;;35.50;61.60;;;;;;5072543;28;20031;-82
2021/07/01 08:02:33;;;;;;;16.73;10.20;;;35.10;61.40;;;;;;5073932;28;20024;-82
2021/07/01 08:05:01;;;;;;;15.80;10.93;;;34.80;61.80;;;;;;5072989;28;20340;-82
2021/07/01 08:07:30;;;;;;;18.73;10.75;;;34.50;61.90;;;;;;5071969;28;20024;-82
2021/07/01 08:09:59;;;;;;;85.15;18.10;;;34.50;62.10;;;;;;5071943;28;20537;-81
2021/07/01 08:12:27;;;;;;;18.23;10.38;;;34.60;61.80;;;;;;5072209;28;20027;-82
2021/07/01 08:14:53;;;;;;;17.58;11.18;;;34.50;61.20;;;;;;5072116;28;20020;-81
2021/07/01 08:17:19;;;;;;;14.27;11.10;;;34.50;61.50;;;;;;5072062;28;20095;-82
2021/07/01 08:19:46;;;;;;;15.82;10.40;;;34.30;61.10;;;;;;5071714;28;20024;-81
2021/07/01 08:22:12;;;;;;;17.15;10.88;;;34.30;61.20;;;;;;5071659;28;20017;-81
2021/07/01 08:24:38;;;;;;;23.75;11.18;;;34.40;61.40;;;;;;5071886;28;20387;-81
2021/07/01 08:27:04;;;;;;;14.63;10.55;;;34.50;61.00;;;;;;5072235;28;20025;-81
2021/07/01 08:29:31;;;;;;;17.75;10.38;;;34.60;61.20;;;;;;5053272;28;20024;-78
2021/07/01 08:32:05;;;;;;;14.85;10.52;;;34.70;60.50;;;;;;5071335;28;20379;-81
2021/07/01 08:34:35;;;;;;;16.73;10.65;;;34.90;59.70;;;;;;5071254;28;20013;-81
2021/07/01 08:37:00;;;;;;;17.25;11.35;;;35.10;59.40;;;;;;5070998;28;20021;-80
2021/07/01 08:39:32;;;;;;;24.00;13.98;;;35.40;59.20;;;;;;5071373;28;20032;-79
2021/07/01 08:42:02;;;;;;;16.90;10.27;;;35.50;59.00;;;;;;5071507;28;20117;-81
2021/07/01 08:44:40;;;;;;;16.90;10.70;;;35.60;57.90;;;;;;5071206;28;20027;-80
2021/07/01 08:47:12;;;;;;;14.68;10.23;;;35.70;57.90;;;;;;5072710;28;20225;-80
2021/07/01 08:49:55;;;;;;;14.55;10.52;;;35.80;57.30;;;;;;5075467;28;20035;-80
2021/07/01 08:52:26;;;;;;;14.75;10.98;;;36.00;57.20;;;;;;5075492;28;20074;-80
2021/07/01 08:54:59;;;;;;;12.98;10.60;;;35.90;56.60;;;;;;5075107;28;20464;-79
2021/07/01 08:57:28;;;;;;;15.52;10.68;;;35.90;56.20;;;;;;5075682;28;20025;-79
2021/07/01 09:00:08;;;;;;;17.50;11.02;;;36.00;56.10;;;;;;5074938;28;20025;-79
2021/07/01 09:02:36;;;;;;;14.02;10.77;;;36.00;55.60;;;;;;5074998;28;20487;-80
2021/07/01 09:05:15;;;;;;;14.43;10.57;;;36.30;55.50;;;;;;5075150;28;20028;-81
2021/07/01 09:07:47;;;;;;;16.50;10.05;;;36.60;55.10;;;;;;5075079;28;20039;-80
2021/07/01 09:10:15;;;;;;;19.88;11.73;;;37.00;54.70;;;;;;5074908;28;20053;-79
2021/07/01 09:12:52;;;;;;;21.80;10.48;;;37.30;53.80;;;;;;5074845;28;20114;-80
2021/07/01 09:15:18;;;;;;;13.15;9.82;;;37.50;53.10;;;;;;5074591;28;20541;-80
2021/07/01 09:17:51;;;;;;;12.55;9.77;;;37.40;52.50;;;;;;5074404;28;20028;-80
2021/07/01 09:20:23;;;;;;;14.23;8.80;;;37.40;52.00;;;;;;5074130;28;20017;-80
2021/07/01 09:22:53;;;;;;;15.32;10.40;;;37.40;51.80;;;;;;5074669;28;20443;-80
2021/07/01 09:25:20;;;;;;;11.13;9.03;;;37.40;51.80;;;;;;5074421;28;20064;-78
2021/07/01 09:27:48;;;;;;;15.10;10.13;;;37.40;51.60;;;;;;5074567;28;20142;-80
2021/07/01 09:30:16;;;;;;;14.57;9.95;;;37.30;51.50;;;;;;5074288;28;20039;-80
2021/07/01 09:32:43;;;;;;;13.90;9.50;;;37.30;51.30;;;;;;5074246;28;20017;-80
2021/07/01 09:35:12;;;;;;;15.93;9.35;;;37.20;51.20;;;;;;5074466;28;20017;-80
2021/07/01 09:37:43;;;;;;;13.85;9.27;;;37.20;51.50;;;;;;5074332;28;20017;-80
2021/07/01 09:40:11;;;;;;;11.68;9.32;;;37.20;51.50;;;;;;5074378;28;20048;-81
2021/07/01 09:42:37;;;;;;;11.55;8.57;;;37.10;50.60;;;;;;5074625;28;20104;-80
2021/07/01 09:45:09;;;;;;;11.45;8.88;;;36.90;50.60;;;;;;5075410;28;20477;-81
2021/07/01 09:47:43;;;;;;;16.75;9.00;;;36.80;50.60;;;;;;5074985;28;20036;-81
2021/07/01 09:50:11;;;;;;;13.35;9.00;;;36.80;50.90;;;;;;5074313;28;20103;-81
2021/07/01 09:52:44;;;;;;;17.85;8.80;;;36.80;50.90;;;;;;5073501;28;20418;-80
2021/07/01 09:55:11;;;;;;;12.23;10.60;;;36.70;50.50;;;;;;5055706;28;20020;-80
2021/07/01 09:57:39;;;;;;;16.92;11.38;;;36.60;50.70;;;;;;5073928;28;20476;-79
2021/07/01 10:00:10;;;;;;;13.90;9.02;;;36.60;51.20;;;;;;5073381;28;20657;-81
2021/07/01 10:02:37;;;;;;;13.63;8.48;;;36.70;50.90;;;;;;5073618;28;20032;-81
2021/07/01 10:05:09;;;;;;;12.13;8.30;;;36.70;50.80;;;;;;5073900;28;20079;-81
2021/07/01 10:07:47;;;;;;;13.05;9.23;;;36.80;50.60;;;;;;5073791;28;20788;-82
2021/07/01 10:10:14;;;;;;;18.70;9.50;;;36.70;50.90;;;;;;5073626;28;20020;-80
2021/07/01 10:13:13;;;;;;;13.07;9.07;;;36.70;51.10;;;;;;5073908;28;20025;-81
2021/07/01 10:15:41;;;;;;;10.07;8.45;;;36.60;51.40;;;;;;5040237;28;20391;-81
2021/07/01 10:18:14;;;;;;;14.48;8.93;;;36.50;51.20;;;;;;5055692;28;20438;-81
2021/07/01 10:20:45;;;;;;;11.88;8.73;;;36.40;50.90;;;;;;5073892;28;20467;-82
2021/07/01 10:23:36;;;;;;;24.58;19.08;;;36.10;51.40;;;;;;5074185;28;20024;-79
2021/07/01 10:26:16;;;;;;;24.85;17.63;;;35.90;52.80;;;;;;5073945;28;20052;-84
2021/07/01 10:28:55;;;;;;;26.63;21.85;;;35.50;54.40;;;;;;5073819;28;20053;-82
2021/07/01 10:31:21;;;;;;;26.88;19.83;;;35.20;54.90;;;;;;5073684;28;20028;-81
2021/07/01 10:33:47;;;;;;;25.88;20.35;;;34.80;55.80;;;;;;5055596;28;20032;-83
2021/07/01 10:36:21;;;;;;;25.88;19.33;;;34.60;56.30;;;;;;5073509;28;20070;-81
2021/07/01 10:38:53;;;;;;;31.20;21.75;;;34.40;57.20;;;;;;5073637;28;20032;-81
2021/07/01 10:41:31;;;;;;;26.13;20.65;;;34.10;57.40;;;;;;5073448;28;20027;-82
2021/07/01 10:43:58;;;;;;;23.73;19.25;;;33.70;57.90;;;;;;5055541;28;20459;-80
2021/07/01 10:46:38;;;;;;;28.85;20.63;;;33.50;59.30;;;;;;5072808;28;20532;-81
2021/07/01 10:49:04;;;;;;;26.10;18.88;;;33.20;59.20;;;;;;5072853;28;20066;-77
2021/07/01 10:51:31;;;;;;;26.63;20.05;;;32.80;60.20;;;;;;5072673;28;20136;-78
2021/07/01 10:54:15;;;;;;;25.55;20.00;;;32.60;60.50;;;;;;5072601;28;20107;-77
2021/07/01 10:56:45;;;;;;;20.38;17.48;;;32.30;60.90;;;;;;5072657;28;20042;-77
2021/07/01 10:59:12;;;;;;;25.27;18.52;;;32.30;61.50;;;;;;5072842;28;20475;-76
2021/07/01 11:01:41;;;;;;;22.77;17.60;;;32.30;61.30;;;;;;5054557;28;20391;-77
2021/07/01 11:04:15;;;;;;;23.33;17.20;;;32.30;61.60;;;;;;5072783;28;20379;-77
2021/07/01 11:06:56;;;;;;;30.98;18.45;;;32.40;62.00;;;;;;5073393;28;20029;-77
2021/07/01 11:09:22;;;;;;;22.10;16.20;;;32.60;61.30;;;;;;5071735;28;20111;-78
2021/07/01 11:11:59;;;;;;;16.88;9.90;;;32.80;61.00;;;;;;5072385;28;20017;-80
2021/07/01 11:14:41;;;;;;;12.63;8.15;;;32.90;58.60;;;;;;5072499;28;20131;-81
2021/07/01 11:17:07;;;;;;;8.35;6.22;;;32.90;56.20;;;;;;5072347;28;20021;-79
2021/07/01 11:19:42;;;;;;;9.45;7.53;;;32.90;54.60;;;;;;5072492;28;20502;-79
2021/07/01 11:22:08;;;;;;;12.73;6.82;;;32.90;54.50;;;;;;5072791;28;20032;-81
2021/07/01 11:24:39;;;;;;;8.10;6.60;;;32.90;54.30;;;;;;5072422;28;20131;-80
2021/07/01 11:27:05;;;;;;;11.57;6.22;;;33.00;53.90;;;;;;5072097;28;20499;-80
2021/07/01 11:29:44;;;;;;;9.77;6.32;;;33.10;53.40;;;;;;5071888;28;20039;-81
2021/07/01 11:32:30;;;;;;;9.45;6.72;;;33.20;52.70;;;;;;5072634;28;20379;-81
2021/07/01 11:34:57;;;;;;;12.77;6.85;;;33.30;52.90;;;;;;5072585;28;20052;-79
2021/07/01 11:37:36;;;;;;;10.73;6.65;;;33.20;52.80;;;;;;5072963;28;20099;-80
2021/07/01 11:40:20;;;;;;;13.50;6.60;;;33.30;53.00;;;;;;5053745;28;20051;-80
2021/07/01 11:42:47;;;;;;;8.77;6.28;;;33.20;52.80;;;;;;5072027;28;20029;-79
2021/07/01 11:45:13;;;;;;;8.70;6.22;;;33.20;52.60;;;;;;5072247;28;20024;-79
2021/07/01 11:47:42;;;;;;;9.10;5.65;;;33.20;52.30;;;;;;5071831;28;20158;-80
2021/07/01 11:50:09;;;;;;;9.95;6.32;;;33.20;51.80;;;;;;5072333;28;20024;-79
2021/07/01 11:52:37;;;;;;;11.57;6.25;;;33.20;52.00;;;;;;5053937;28;20056;-79
2021/07/01 11:55:03;;;;;;;12.18;6.72;;;33.20;51.90;;;;;;5071846;28;20033;-80
2021/07/01 11:57:30;;;;;;;11.40;6.70;;;33.20;51.90;;;;;;5072379;28;20383;-80
2021/07/01 11:59:57;;;;;;;14.20;7.07;;;33.10;52.40;;;;;;5071978;28;20150;-79
2021/07/01 12:02:23;;;;;;;8.82;6.68;;;33.10;52.60;;;;;;5072006;28;20034;-80
2021/07/01 12:04:49;;;;;;;16.73;6.82;;;33.00;52.60;;;;;;5072176;28;20051;-80
2021/07/01 12:07:26;;;;;;;16.20;6.38;;;33.00;52.90;;;;;;5071981;28;20106;-85
2021/07/01 12:09:55;;;;;;;11.45;7.05;;;33.00;53.20;;;;;;5054982;28;20422;-85
2021/07/01 12:12:27;;;;;;;10.25;6.63;;;32.90;53.10;;;;;;5055842;28;20031;-84
2021/07/01 12:15:15;;;;;;;10.90;6.43;;;33.00;53.60;;;;;;5055607;28;20025;-87
2021/07/01 12:17:50;;;;;;;11.30;8.00;;;33.00;53.80;;;;;;5055212;28;20020;-85
2021/07/01 12:20:37;;;;;;;15.15;7.18;;;33.00;53.80;;;;;;5055338;28;20035;-87
2021/07/01 12:23:17;;;;;;;10.35;6.93;;;32.90;53.80;;;;;;5074058;28;20030;-85
2021/07/01 12:25:48;;;;;;;10.73;6.60;;;32.90;53.80;;;;;;5073705;28;20024;-86
2021/07/01 12:28:19;;;;;;;9.95;6.30;;;32.80;54.10;;;;;;5055557;28;20063;-86
2021/07/01 12:30:55;;;;;;;;;;;32.80;53.80;;;;;;5074204;28;20017;-86
2021/07/01 12:33:32;;;;;;;14.07;6.80;;;32.80;54.00;;;;;;5073716;28;19927;-85
2021/07/01 12:36:22;;;;;;;10.07;6.13;;;32.80;53.60;;;;;;5073949;28;20102;-86
2021/07/01 12:39:10;;;;;;;11.05;6.60;;;32.80;53.40;;;;;;5073388;28;20406;-86